WZZ4M EPWA-EBBR
Flight info
| Callsign | WZZ4M |
|---|---|
| Flight time | 1h 42m |
| Altitude | 38000 |
| Route | LOLSI DCT DIBLO DCT INDIG DCT GOVEN DCT MAG DCT TOLGI DCT ABAMI Z717 NEREL/N0352F240 T855 AGENI/N0323F180 T855 BATTY |
| Aircraft | A20N/M-SDE2E3FGHIRWXY/LB1 |
Departure
| Time | 2026-05-07 18:06 |
|---|---|
| Airport | Warsaw Chopin Airport (EPWA) |
Arrival
| Time | 2026-05-07 19:49 |
|---|---|
| Airport | Brussels Airport (EBBR) |
| Time | Latitude | Longitude | Altitude | Speed | Heading |
|---|---|---|---|---|---|
| 2026-05-07 17:34 | 52.16816 | 20.97313 | 331 ft | 0 kts | 74° |
| 2026-05-07 18:00 | 52.16814 | 20.97303 | 336 ft | 2 kts | 73° |
| 2026-05-07 18:00 | 52.16810 | 20.97279 | 332 ft | 2 kts | 72° |
| 2026-05-07 18:00 | 52.16807 | 20.97253 | 334 ft | 2 kts | 79° |
| 2026-05-07 18:00 | 52.16804 | 20.97226 | 332 ft | 2 kts | 83° |
| 2026-05-07 18:01 | 52.16803 | 20.97200 | 332 ft | 2 kts | 90° |
| 2026-05-07 18:01 | 52.16804 | 20.97173 | 332 ft | 2 kts | 105° |
| 2026-05-07 18:01 | 52.16811 | 20.97149 | 331 ft | 2 kts | 137° |
| 2026-05-07 18:01 | 52.16821 | 20.97137 | 331 ft | 1 kts | 153° |
| 2026-05-07 18:02 | 52.16821 | 20.97136 | 331 ft | 0 kts | 153° |
| 2026-05-07 18:03 | 52.16820 | 20.97138 | 331 ft | 2 kts | 153° |
| 2026-05-07 18:03 | 52.16776 | 20.97175 | 335 ft | 13 kts | 152° |
| 2026-05-07 18:03 | 52.16658 | 20.97279 | 333 ft | 25 kts | 153° |
| 2026-05-07 18:03 | 52.16550 | 20.97456 | 334 ft | 23 kts | 115° |
| 2026-05-07 18:04 | 52.16479 | 20.97709 | 333 ft | 26 kts | 115° |
| 2026-05-07 18:04 | 52.16404 | 20.97799 | 334 ft | 0 kts | 199° |
| 2026-05-07 18:04 | 52.16380 | 20.97783 | 335 ft | 9 kts | 204° |
| 2026-05-07 18:04 | 52.16307 | 20.97711 | 331 ft | 14 kts | 234° |
| 2026-05-07 18:05 | 52.16331 | 20.97594 | 335 ft | 11 kts | 294° |
| 2026-05-07 18:05 | 52.16337 | 20.97568 | 334 ft | 0 kts | 292° |
| 2026-05-07 18:05 | 52.16338 | 20.97564 | 334 ft | 2 kts | 292° |
| 2026-05-07 18:06 | 52.16402 | 20.97334 | 333 ft | 57 kts | 295° |
| 2026-05-07 18:06 | 52.16661 | 20.96413 | 339 ft | 118 kts | 295° |
| 2026-05-07 18:06 | 52.17056 | 20.94984 | 490 ft | 150 kts | 296° |
| 2026-05-07 18:06 | 52.17483 | 20.93442 | 1120 ft | 149 kts | 298° |
| 2026-05-07 18:07 | 52.17923 | 20.91914 | 1772 ft | 150 kts | 297° |
| 2026-05-07 18:07 | 52.18309 | 20.90339 | 2345 ft | 155 kts | 282° |
| 2026-05-07 18:07 | 52.18289 | 20.88484 | 2707 ft | 173 kts | 264° |
| 2026-05-07 18:07 | 52.18132 | 20.86456 | 3106 ft | 187 kts | 264° |
| 2026-05-07 18:08 | 52.18043 | 20.84257 | 3400 ft | 205 kts | 270° |
| 2026-05-07 18:08 | 52.18032 | 20.82641 | 3506 ft | 221 kts | 269° |
| 2026-05-07 18:08 | 52.18008 | 20.79188 | 3893 ft | 248 kts | 270° |
| 2026-05-07 18:08 | 52.17999 | 20.76305 | 4514 ft | 257 kts | 270° |
| 2026-05-07 18:09 | 52.17997 | 20.73375 | 5455 ft | 258 kts | 270° |
| 2026-05-07 18:09 | 52.17999 | 20.70442 | 6452 ft | 261 kts | 269° |
| 2026-05-07 18:09 | 52.18000 | 20.67477 | 7477 ft | 263 kts | 269° |
| 2026-05-07 18:09 | 52.18001 | 20.64481 | 8541 ft | 267 kts | 269° |
| 2026-05-07 18:10 | 52.18001 | 20.62462 | 9205 ft | 271 kts | 269° |
| 2026-05-07 18:10 | 52.18000 | 20.59363 | 10227 ft | 275 kts | 268° |
| 2026-05-07 18:10 | 52.17998 | 20.56165 | 10907 ft | 292 kts | 268° |
| 2026-05-07 18:10 | 52.17992 | 20.51559 | 11531 ft | 318 kts | 268° |
| 2026-05-07 18:11 | 52.17994 | 20.48257 | 13802 ft | 250 kts | 266° |
| 2026-05-07 18:11 | 52.17994 | 20.46602 | 15747 ft | 191 kts | 265° |
| 2026-05-07 18:11 | 52.17982 | 20.43706 | 16818 ft | 212 kts | 265° |
| 2026-05-07 18:11 | 52.18010 | 20.41192 | 17227 ft | 227 kts | 268° |
| 2026-05-07 18:12 | 52.18066 | 20.39489 | 17776 ft | 227 kts | 269° |
| 2026-05-07 18:12 | 52.18205 | 20.36909 | 18539 ft | 228 kts | 271° |
| 2026-05-07 18:12 | 52.18320 | 20.34343 | 19253 ft | 226 kts | 264° |
| 2026-05-07 18:12 | 52.18275 | 20.31748 | 19825 ft | 233 kts | 263° |
| 2026-05-07 18:13 | 52.18229 | 20.29083 | 20350 ft | 238 kts | 263° |
| 2026-05-07 18:13 | 52.18168 | 20.26312 | 20634 ft | 256 kts | 261° |
| 2026-05-07 18:13 | 52.18055 | 20.23296 | 20790 ft | 277 kts | 262° |
| 2026-05-07 18:13 | 52.17961 | 20.20084 | 20988 ft | 298 kts | 263° |
| 2026-05-07 18:14 | 52.17902 | 20.16597 | 21185 ft | 318 kts | 264° |
| 2026-05-07 18:14 | 52.17870 | 20.12872 | 21258 ft | 341 kts | 264° |
| 2026-05-07 18:14 | 52.17852 | 20.08911 | 21544 ft | 357 kts | 265° |
| 2026-05-07 18:14 | 52.17837 | 20.04776 | 21768 ft | 373 kts | 265° |
| 2026-05-07 18:15 | 52.17820 | 20.00462 | 21955 ft | 389 kts | 265° |
| 2026-05-07 18:15 | 52.17803 | 19.96076 | 22871 ft | 384 kts | 264° |
| 2026-05-07 18:15 | 52.17825 | 19.91719 | 23583 ft | 388 kts | 265° |
| 2026-05-07 18:15 | 52.17795 | 19.87324 | 24128 ft | 389 kts | 263° |
| 2026-05-07 18:16 | 52.17724 | 19.82885 | 24637 ft | 394 kts | 263° |
| 2026-05-07 18:16 | 52.17667 | 19.78403 | 25205 ft | 395 kts | 263° |
| 2026-05-07 18:16 | 52.17633 | 19.73919 | 25822 ft | 396 kts | 263° |
| 2026-05-07 18:16 | 52.17628 | 19.69877 | 28325 ft | 302 kts | 262° |
| 2026-05-07 18:17 | 52.17660 | 19.67156 | 32039 ft | 202 kts | 259° |
| 2026-05-07 18:17 | 52.17714 | 19.64859 | 32426 ft | 213 kts | 260° |
| 2026-05-07 18:17 | 52.17774 | 19.62178 | 31357 ft | 263 kts | 262° |
| 2026-05-07 18:17 | 52.17850 | 19.59036 | 31014 ft | 284 kts | 263° |
| 2026-05-07 18:18 | 52.17919 | 19.55817 | 31274 ft | 284 kts | 262° |
| 2026-05-07 18:18 | 52.17947 | 19.52568 | 31395 ft | 290 kts | 261° |
| 2026-05-07 18:18 | 52.17936 | 19.49231 | 31422 ft | 299 kts | 260° |
| 2026-05-07 18:19 | 52.17850 | 19.42255 | 31581 ft | 316 kts | 261° |
| 2026-05-07 18:19 | 52.17827 | 19.38786 | 32128 ft | 308 kts | 261° |
| 2026-05-07 18:19 | 52.17755 | 19.35366 | 32805 ft | 293 kts | 258° |
| 2026-05-07 18:19 | 52.17621 | 19.32099 | 33212 ft | 290 kts | 258° |
| 2026-05-07 18:20 | 52.17500 | 19.28771 | 33228 ft | 299 kts | 259° |
| 2026-05-07 18:20 | 52.17371 | 19.21851 | 33428 ft | 311 kts | 261° |
| 2026-05-07 18:20 | 52.17341 | 19.18304 | 33553 ft | 317 kts | 261° |
| 2026-05-07 18:21 | 52.17315 | 19.14702 | 33814 ft | 316 kts | 261° |
| 2026-05-07 18:21 | 52.17294 | 19.11130 | 34143 ft | 315 kts | 261° |
| 2026-05-07 18:21 | 52.17266 | 19.07516 | 34190 ft | 323 kts | 261° |
| 2026-05-07 18:22 | 52.17199 | 19.00094 | 34471 ft | 330 kts | 262° |
| 2026-05-07 18:22 | 52.17182 | 18.97614 | 34882 ft | 321 kts | 262° |
| 2026-05-07 18:22 | 52.17144 | 18.92868 | 35408 ft | 313 kts | 262° |
| 2026-05-07 18:23 | 52.17062 | 18.85654 | 35458 ft | 326 kts | 262° |
| 2026-05-07 18:23 | 52.17021 | 18.81946 | 35567 ft | 330 kts | 262° |
| 2026-05-07 18:23 | 52.16980 | 18.78178 | 35638 ft | 336 kts | 262° |
| 2026-05-07 18:24 | 52.16903 | 18.71147 | 35874 ft | 341 kts | 263° |
| 2026-05-07 18:24 | 52.16875 | 18.68450 | 35979 ft | 343 kts | 263° |
| 2026-05-07 18:24 | 52.16822 | 18.64498 | 35683 ft | 358 kts | 262° |
| 2026-05-07 18:24 | 52.16781 | 18.60591 | 36724 ft | 319 kts | 263° |
| 2026-05-07 18:25 | 52.16765 | 18.57112 | 37604 ft | 309 kts | 264° |
| 2026-05-07 18:25 | 52.16737 | 18.53511 | 36968 ft | 333 kts | 264° |
| 2026-05-07 18:25 | 52.16737 | 18.49596 | 36604 ft | 348 kts | 266° |
| 2026-05-07 18:25 | 52.16810 | 18.45722 | 37139 ft | 338 kts | 266° |
| 2026-05-07 18:26 | 52.16876 | 18.41913 | 37387 ft | 337 kts | 266° |
| 2026-05-07 18:26 | 52.16910 | 18.38105 | 37564 ft | 336 kts | 265° |
| 2026-05-07 18:26 | 52.16903 | 18.34290 | 37636 ft | 338 kts | 264° |
| 2026-05-07 18:27 | 52.16762 | 18.26630 | 37768 ft | 343 kts | 263° |
| 2026-05-07 18:27 | 52.16635 | 18.22754 | 37890 ft | 344 kts | 262° |
| 2026-05-07 18:27 | 52.16481 | 18.18849 | 37962 ft | 347 kts | 262° |
| 2026-05-07 18:27 | 52.16296 | 18.14822 | 37516 ft | 365 kts | 262° |
| 2026-05-07 18:28 | 52.16112 | 18.10622 | 37237 ft | 379 kts | 262° |
| 2026-05-07 18:28 | 52.15906 | 18.01906 | 37338 ft | 391 kts | 264° |
| 2026-05-07 18:29 | 52.15763 | 17.92946 | 37436 ft | 401 kts | 264° |
| 2026-05-07 18:29 | 52.15604 | 17.83799 | 37529 ft | 412 kts | 264° |
| 2026-05-07 18:30 | 52.15425 | 17.74353 | 37635 ft | 422 kts | 264° |
| 2026-05-07 18:30 | 52.15234 | 17.64681 | 37740 ft | 432 kts | 265° |
| 2026-05-07 18:30 | 52.15134 | 17.59780 | 37897 ft | 434 kts | 265° |
| 2026-05-07 18:31 | 52.15032 | 17.54864 | 38040 ft | 435 kts | 265° |
| 2026-05-07 18:31 | 52.14823 | 17.45044 | 38050 ft | 433 kts | 265° |
| 2026-05-07 18:32 | 52.14606 | 17.35301 | 38049 ft | 434 kts | 265° |
| 2026-05-07 18:32 | 52.14379 | 17.25480 | 38048 ft | 434 kts | 265° |
| 2026-05-07 18:33 | 52.14144 | 17.15666 | 38057 ft | 434 kts | 265° |
| 2026-05-07 18:33 | 52.13900 | 17.05848 | 38050 ft | 434 kts | 265° |
| 2026-05-07 18:34 | 52.13649 | 16.96087 | 38054 ft | 434 kts | 265° |
| 2026-05-07 18:34 | 52.13389 | 16.86266 | 38050 ft | 435 kts | 265° |
| 2026-05-07 18:35 | 52.13121 | 16.76440 | 38064 ft | 435 kts | 265° |
| 2026-05-07 18:35 | 52.12844 | 16.66613 | 38066 ft | 435 kts | 265° |
| 2026-05-07 18:36 | 52.12559 | 16.56781 | 38054 ft | 435 kts | 265° |
| 2026-05-07 18:36 | 52.12268 | 16.47006 | 38051 ft | 435 kts | 265° |
| 2026-05-07 18:37 | 52.11967 | 16.37176 | 38056 ft | 436 kts | 265° |
| 2026-05-07 18:37 | 52.11657 | 16.27326 | 38062 ft | 436 kts | 265° |
| 2026-05-07 18:38 | 52.11339 | 16.17484 | 38063 ft | 436 kts | 264° |
| 2026-05-07 18:38 | 52.11012 | 16.07626 | 38069 ft | 436 kts | 264° |
| 2026-05-07 18:39 | 52.10677 | 15.97771 | 38074 ft | 436 kts | 264° |
| 2026-05-07 18:39 | 52.10335 | 15.87974 | 38076 ft | 437 kts | 264° |
| 2026-05-07 18:40 | 52.09983 | 15.78107 | 38073 ft | 437 kts | 264° |
| 2026-05-07 18:40 | 52.09623 | 15.68237 | 38075 ft | 437 kts | 264° |
| 2026-05-07 18:41 | 52.09254 | 15.58369 | 38073 ft | 437 kts | 264° |
| 2026-05-07 18:41 | 52.08877 | 15.48490 | 38071 ft | 438 kts | 264° |
| 2026-05-07 18:42 | 52.08492 | 15.38621 | 38071 ft | 438 kts | 264° |
| 2026-05-07 18:42 | 52.08097 | 15.28723 | 38070 ft | 438 kts | 264° |
| 2026-05-07 18:43 | 52.07697 | 15.18904 | 38065 ft | 438 kts | 264° |
| 2026-05-07 18:43 | 52.07286 | 15.09012 | 38069 ft | 439 kts | 264° |
| 2026-05-07 18:44 | 52.06866 | 14.99113 | 38070 ft | 439 kts | 264° |
| 2026-05-07 18:44 | 52.06441 | 14.89213 | 38075 ft | 439 kts | 264° |
| 2026-05-07 18:45 | 52.06012 | 14.79328 | 38075 ft | 439 kts | 264° |
| 2026-05-07 18:45 | 52.05676 | 14.69473 | 38078 ft | 440 kts | 268° |
| 2026-05-07 18:46 | 52.05632 | 14.59527 | 38073 ft | 441 kts | 268° |
| 2026-05-07 18:46 | 52.05569 | 14.49575 | 38076 ft | 441 kts | 268° |
| 2026-05-07 18:47 | 52.05463 | 14.39611 | 38076 ft | 441 kts | 267° |
| 2026-05-07 18:47 | 52.05341 | 14.29715 | 38074 ft | 440 kts | 267° |
| 2026-05-07 18:48 | 52.05210 | 14.19794 | 38075 ft | 441 kts | 267° |
| 2026-05-07 18:48 | 52.05070 | 14.09841 | 38077 ft | 441 kts | 267° |
| 2026-05-07 18:49 | 52.04922 | 13.99858 | 38081 ft | 441 kts | 267° |
| 2026-05-07 18:49 | 52.04767 | 13.89906 | 38086 ft | 441 kts | 267° |
| 2026-05-07 18:50 | 52.04603 | 13.79989 | 38086 ft | 442 kts | 267° |
| 2026-05-07 18:50 | 52.04430 | 13.70033 | 38090 ft | 441 kts | 267° |
| 2026-05-07 18:51 | 52.04248 | 13.60051 | 38092 ft | 442 kts | 267° |
| 2026-05-07 18:51 | 52.04059 | 13.50092 | 38092 ft | 442 kts | 267° |
| 2026-05-07 18:52 | 52.03860 | 13.40107 | 38087 ft | 442 kts | 267° |
| 2026-05-07 18:52 | 52.03654 | 13.30186 | 38088 ft | 442 kts | 267° |
| 2026-05-07 18:53 | 52.03438 | 13.20170 | 38085 ft | 442 kts | 267° |
| 2026-05-07 18:53 | 52.03216 | 13.10262 | 38086 ft | 442 kts | 267° |
| 2026-05-07 18:54 | 52.02984 | 13.00292 | 38085 ft | 442 kts | 267° |
| 2026-05-07 18:54 | 52.02743 | 12.90320 | 38086 ft | 442 kts | 266° |
| 2026-05-07 18:55 | 52.02494 | 12.80351 | 38091 ft | 442 kts | 266° |
| 2026-05-07 18:55 | 52.02241 | 12.70541 | 38096 ft | 442 kts | 266° |
| 2026-05-07 18:56 | 52.01976 | 12.60604 | 38094 ft | 442 kts | 266° |
| 2026-05-07 18:56 | 52.01704 | 12.50709 | 38096 ft | 442 kts | 266° |
| 2026-05-07 18:57 | 52.01422 | 12.40746 | 38093 ft | 442 kts | 266° |
| 2026-05-07 18:57 | 52.01132 | 12.30801 | 38096 ft | 441 kts | 266° |
| 2026-05-07 18:58 | 52.00833 | 12.20836 | 38099 ft | 442 kts | 266° |
| 2026-05-07 18:58 | 52.00525 | 12.10874 | 38102 ft | 442 kts | 266° |
| 2026-05-07 18:59 | 52.00213 | 12.01017 | 38095 ft | 442 kts | 266° |
| 2026-05-07 18:59 | 51.99892 | 11.91129 | 38098 ft | 442 kts | 266° |
| 2026-05-07 19:00 | 51.99562 | 11.81174 | 38104 ft | 442 kts | 266° |
| 2026-05-07 19:00 | 51.98942 | 11.71268 | 38103 ft | 441 kts | 263° |
| 2026-05-07 19:01 | 51.98324 | 11.61365 | 38104 ft | 441 kts | 263° |
| 2026-05-07 19:01 | 51.97691 | 11.51464 | 38103 ft | 441 kts | 263° |
| 2026-05-07 19:02 | 51.97044 | 11.41657 | 38102 ft | 441 kts | 263° |
| 2026-05-07 19:02 | 51.96381 | 11.31769 | 38105 ft | 441 kts | 263° |
| 2026-05-07 19:03 | 51.95710 | 11.21894 | 38103 ft | 440 kts | 263° |
| 2026-05-07 19:03 | 51.95031 | 11.12036 | 38105 ft | 440 kts | 263° |
| 2026-05-07 19:04 | 51.94345 | 11.02186 | 38110 ft | 439 kts | 263° |
| 2026-05-07 19:04 | 51.93652 | 10.92356 | 38115 ft | 439 kts | 263° |
| 2026-05-07 19:05 | 51.92956 | 10.82591 | 38113 ft | 439 kts | 263° |
| 2026-05-07 19:05 | 51.92246 | 10.72770 | 38114 ft | 439 kts | 263° |
| 2026-05-07 19:06 | 51.91528 | 10.62944 | 38111 ft | 439 kts | 263° |
| 2026-05-07 19:06 | 51.90438 | 10.48239 | 38114 ft | 439 kts | 263° |
| 2026-05-07 19:07 | 51.89702 | 10.38449 | 38112 ft | 438 kts | 262° |
| 2026-05-07 19:07 | 51.88737 | 10.28800 | 38117 ft | 438 kts | 253° |
| 2026-05-07 19:08 | 51.86809 | 10.19456 | 38110 ft | 438 kts | 251° |
| 2026-05-07 19:08 | 51.84864 | 10.10116 | 38107 ft | 437 kts | 252° |
| 2026-05-07 19:09 | 51.83000 | 10.00752 | 38108 ft | 438 kts | 252° |
| 2026-05-07 19:09 | 51.81149 | 9.91395 | 38108 ft | 437 kts | 252° |
| 2026-05-07 19:10 | 51.79290 | 9.82045 | 38104 ft | 437 kts | 252° |
| 2026-05-07 19:10 | 51.77511 | 9.73152 | 38106 ft | 437 kts | 252° |
| 2026-05-07 19:11 | 51.75651 | 9.63892 | 38105 ft | 437 kts | 252° |
| 2026-05-07 19:11 | 51.73770 | 9.54575 | 38104 ft | 436 kts | 252° |
| 2026-05-07 19:12 | 51.71883 | 9.45270 | 38106 ft | 437 kts | 252° |
| 2026-05-07 19:12 | 51.70010 | 9.36081 | 38104 ft | 436 kts | 252° |
| 2026-05-07 19:13 | 51.68108 | 9.26789 | 38105 ft | 437 kts | 251° |
| 2026-05-07 19:13 | 51.66212 | 9.17574 | 38101 ft | 436 kts | 251° |
| 2026-05-07 19:14 | 51.64299 | 9.08313 | 38107 ft | 436 kts | 251° |
| 2026-05-07 19:14 | 51.62375 | 8.99047 | 38102 ft | 436 kts | 251° |
| 2026-05-07 19:15 | 51.60446 | 8.89800 | 38104 ft | 436 kts | 251° |
| 2026-05-07 19:15 | 51.58512 | 8.80567 | 38100 ft | 436 kts | 251° |
| 2026-05-07 19:16 | 51.56570 | 8.71341 | 38105 ft | 435 kts | 251° |
| 2026-05-07 19:16 | 51.54622 | 8.62132 | 38103 ft | 435 kts | 251° |
| 2026-05-07 19:17 | 51.52652 | 8.52859 | 38105 ft | 435 kts | 251° |
| 2026-05-07 19:17 | 51.50709 | 8.43754 | 38102 ft | 435 kts | 251° |
| 2026-05-07 19:18 | 51.48758 | 8.34651 | 38102 ft | 435 kts | 251° |
| 2026-05-07 19:18 | 51.46783 | 8.25478 | 38102 ft | 435 kts | 251° |
| 2026-05-07 19:19 | 51.44805 | 8.16333 | 38094 ft | 434 kts | 251° |
| 2026-05-07 19:19 | 51.42818 | 8.07186 | 38095 ft | 434 kts | 251° |
| 2026-05-07 19:20 | 51.40841 | 7.98126 | 37803 ft | 430 kts | 251° |
| 2026-05-07 19:20 | 51.39845 | 7.93578 | 37217 ft | 429 kts | 251° |
| 2026-05-07 19:20 | 51.38858 | 7.89080 | 36537 ft | 429 kts | 251° |
| 2026-05-07 19:21 | 51.37865 | 7.84561 | 35828 ft | 429 kts | 251° |
| 2026-05-07 19:21 | 51.36869 | 7.80044 | 35125 ft | 430 kts | 250° |
| 2026-05-07 19:21 | 51.35889 | 7.75603 | 34445 ft | 430 kts | 250° |
| 2026-05-07 19:21 | 51.34895 | 7.71115 | 33696 ft | 430 kts | 250° |
| 2026-05-07 19:22 | 51.33890 | 7.66583 | 32887 ft | 431 kts | 250° |
| 2026-05-07 19:22 | 51.32886 | 7.62065 | 32039 ft | 432 kts | 250° |
| 2026-05-07 19:22 | 51.31878 | 7.57544 | 31196 ft | 433 kts | 250° |
| 2026-05-07 19:22 | 51.30864 | 7.53001 | 30371 ft | 434 kts | 250° |
| 2026-05-07 19:23 | 51.29851 | 7.48474 | 29638 ft | 430 kts | 250° |
| 2026-05-07 19:23 | 51.28851 | 7.44016 | 28969 ft | 425 kts | 250° |
| 2026-05-07 19:23 | 51.27877 | 7.39682 | 28306 ft | 421 kts | 250° |
| 2026-05-07 19:23 | 51.26868 | 7.35202 | 27606 ft | 417 kts | 250° |
| 2026-05-07 19:24 | 51.25900 | 7.30909 | 26954 ft | 413 kts | 250° |
| 2026-05-07 19:24 | 51.24935 | 7.26643 | 26321 ft | 409 kts | 250° |
| 2026-05-07 19:24 | 51.23961 | 7.22344 | 25675 ft | 405 kts | 250° |
| 2026-05-07 19:24 | 51.23022 | 7.18206 | 25247 ft | 398 kts | 250° |
| 2026-05-07 19:25 | 51.22077 | 7.14055 | 25102 ft | 400 kts | 250° |
| 2026-05-07 19:25 | 51.21120 | 7.09855 | 25077 ft | 403 kts | 250° |
| 2026-05-07 19:25 | 51.20164 | 7.05667 | 25075 ft | 402 kts | 250° |
| 2026-05-07 19:25 | 51.19207 | 7.01487 | 25075 ft | 402 kts | 250° |
| 2026-05-07 19:26 | 51.18248 | 6.97301 | 25073 ft | 402 kts | 250° |
| 2026-05-07 19:26 | 51.17287 | 6.93118 | 24924 ft | 402 kts | 250° |
| 2026-05-07 19:26 | 51.16327 | 6.88948 | 24490 ft | 401 kts | 250° |
| 2026-05-07 19:26 | 51.15368 | 6.84788 | 23909 ft | 399 kts | 250° |
| 2026-05-07 19:27 | 51.14416 | 6.80671 | 23267 ft | 395 kts | 250° |
| 2026-05-07 19:27 | 51.13471 | 6.76586 | 22576 ft | 392 kts | 250° |
| 2026-05-07 19:27 | 51.12532 | 6.72537 | 21903 ft | 388 kts | 250° |
| 2026-05-07 19:27 | 51.11600 | 6.68524 | 21247 ft | 385 kts | 250° |
| 2026-05-07 19:28 | 51.10726 | 6.64765 | 20643 ft | 382 kts | 250° |
| 2026-05-07 19:28 | 51.09798 | 6.60823 | 20015 ft | 378 kts | 248° |
| 2026-05-07 19:28 | 51.08604 | 6.57062 | 19391 ft | 376 kts | 239° |
| 2026-05-07 19:28 | 51.07097 | 6.53755 | 18795 ft | 374 kts | 230° |
| 2026-05-07 19:29 | 51.05291 | 6.50815 | 18180 ft | 371 kts | 225° |
| 2026-05-07 19:29 | 51.03450 | 6.47938 | 17502 ft | 369 kts | 225° |
| 2026-05-07 19:29 | 51.01655 | 6.45105 | 16842 ft | 366 kts | 225° |
| 2026-05-07 19:29 | 50.99843 | 6.42240 | 16298 ft | 361 kts | 225° |
| 2026-05-07 19:30 | 50.98094 | 6.39477 | 16115 ft | 352 kts | 225° |
| 2026-05-07 19:30 | 50.96353 | 6.36730 | 16073 ft | 357 kts | 225° |
| 2026-05-07 19:30 | 50.94597 | 6.33966 | 16072 ft | 348 kts | 225° |
| 2026-05-07 19:30 | 50.92910 | 6.31317 | 16072 ft | 341 kts | 225° |
| 2026-05-07 19:31 | 50.91785 | 6.29550 | 16072 ft | 344 kts | 225° |
| 2026-05-07 19:31 | 50.89506 | 6.25975 | 16072 ft | 344 kts | 225° |
| 2026-05-07 19:31 | 50.87804 | 6.23309 | 16073 ft | 344 kts | 225° |
| 2026-05-07 19:31 | 50.86104 | 6.20648 | 16075 ft | 344 kts | 225° |
| 2026-05-07 19:32 | 50.84401 | 6.17988 | 16074 ft | 344 kts | 225° |
| 2026-05-07 19:32 | 50.82694 | 6.15323 | 16073 ft | 344 kts | 225° |
| 2026-05-07 19:32 | 50.80992 | 6.12668 | 16075 ft | 344 kts | 225° |
| 2026-05-07 19:32 | 50.79324 | 6.10069 | 16074 ft | 344 kts | 225° |
| 2026-05-07 19:33 | 50.77578 | 6.07352 | 16073 ft | 344 kts | 225° |
| 2026-05-07 19:33 | 50.75895 | 6.04736 | 16074 ft | 344 kts | 225° |
| 2026-05-07 19:33 | 50.74244 | 6.01994 | 16074 ft | 344 kts | 230° |
| 2026-05-07 19:33 | 50.72685 | 5.99127 | 16072 ft | 344 kts | 230° |
| 2026-05-07 19:34 | 50.71125 | 5.96274 | 16071 ft | 344 kts | 230° |
| 2026-05-07 19:34 | 50.69564 | 5.93425 | 16074 ft | 344 kts | 230° |
| 2026-05-07 19:34 | 50.68004 | 5.90573 | 16075 ft | 344 kts | 230° |
| 2026-05-07 19:34 | 50.66486 | 5.87726 | 16057 ft | 342 kts | 235° |
| 2026-05-07 19:35 | 50.65477 | 5.84364 | 15840 ft | 340 kts | 256° |
| 2026-05-07 19:35 | 50.65316 | 5.80675 | 15404 ft | 339 kts | 277° |
| 2026-05-07 19:35 | 50.66035 | 5.77161 | 14885 ft | 340 kts | 298° |
| 2026-05-07 19:35 | 50.67350 | 5.74189 | 14366 ft | 339 kts | 306° |
| 2026-05-07 19:36 | 50.68785 | 5.71220 | 14047 ft | 330 kts | 304° |
| 2026-05-07 19:36 | 50.70043 | 5.68294 | 13846 ft | 319 kts | 301° |
| 2026-05-07 19:36 | 50.71170 | 5.65308 | 13322 ft | 317 kts | 298° |
| 2026-05-07 19:36 | 50.72216 | 5.62241 | 12776 ft | 317 kts | 296° |
| 2026-05-07 19:37 | 50.73198 | 5.59207 | 12237 ft | 317 kts | 296° |
| 2026-05-07 19:37 | 50.74202 | 5.56046 | 11696 ft | 316 kts | 296° |
| 2026-05-07 19:37 | 50.75182 | 5.52952 | 11168 ft | 316 kts | 296° |
| 2026-05-07 19:37 | 50.76149 | 5.49904 | 10660 ft | 316 kts | 296° |
| 2026-05-07 19:38 | 50.77125 | 5.46830 | 10153 ft | 315 kts | 296° |
| 2026-05-07 19:38 | 50.78110 | 5.43730 | 9784 ft | 309 kts | 296° |
| 2026-05-07 19:38 | 50.78739 | 5.41750 | 9694 ft | 300 kts | 296° |
| 2026-05-07 19:38 | 50.79943 | 5.37958 | 9453 ft | 285 kts | 296° |
| 2026-05-07 19:39 | 50.80822 | 5.35181 | 9099 ft | 280 kts | 296° |
| 2026-05-07 19:39 | 50.81678 | 5.32475 | 8950 ft | 283 kts | 296° |
| 2026-05-07 19:39 | 50.82579 | 5.29624 | 8554 ft | 285 kts | 296° |
| 2026-05-07 19:39 | 50.83165 | 5.27769 | 8274 ft | 284 kts | 296° |
| 2026-05-07 19:40 | 50.84042 | 5.24989 | 7894 ft | 282 kts | 296° |
| 2026-05-07 19:40 | 50.84913 | 5.22246 | 7630 ft | 275 kts | 296° |
| 2026-05-07 19:40 | 50.85783 | 5.19540 | 7323 ft | 278 kts | 296° |
| 2026-05-07 19:40 | 50.86668 | 5.16781 | 6795 ft | 284 kts | 296° |
| 2026-05-07 19:41 | 50.87556 | 5.14001 | 6343 ft | 284 kts | 296° |
| 2026-05-07 19:41 | 50.88708 | 5.10381 | 6099 ft | 270 kts | 296° |
| 2026-05-07 19:41 | 50.89548 | 5.07731 | 6061 ft | 270 kts | 296° |
| 2026-05-07 19:41 | 50.90118 | 5.05930 | 5964 ft | 270 kts | 296° |
| 2026-05-07 19:42 | 50.90958 | 5.03272 | 5625 ft | 270 kts | 296° |
| 2026-05-07 19:42 | 50.91779 | 5.00660 | 5236 ft | 269 kts | 296° |
| 2026-05-07 19:42 | 50.92610 | 4.98000 | 4820 ft | 269 kts | 296° |
| 2026-05-07 19:42 | 50.93437 | 4.95338 | 4426 ft | 268 kts | 296° |
| 2026-05-07 19:43 | 50.94232 | 4.92771 | 4206 ft | 261 kts | 296° |
| 2026-05-07 19:43 | 50.95015 | 4.90243 | 4097 ft | 249 kts | 296° |
| 2026-05-07 19:43 | 50.95758 | 4.87838 | 4015 ft | 238 kts | 296° |
| 2026-05-07 19:43 | 50.96464 | 4.85549 | 3996 ft | 222 kts | 296° |
| 2026-05-07 19:44 | 50.97106 | 4.83416 | 3997 ft | 206 kts | 294° |
| 2026-05-07 19:44 | 50.97636 | 4.81378 | 3931 ft | 195 kts | 292° |
| 2026-05-07 19:44 | 50.98134 | 4.79425 | 3853 ft | 185 kts | 292° |
| 2026-05-07 19:44 | 50.98600 | 4.77581 | 3755 ft | 176 kts | 290° |
| 2026-05-07 19:45 | 50.98787 | 4.75697 | 3452 ft | 180 kts | 264° |
| 2026-05-07 19:45 | 50.98373 | 4.73857 | 3165 ft | 179 kts | 236° |
| 2026-05-07 19:45 | 50.97660 | 4.72220 | 2862 ft | 182 kts | 233° |
| 2026-05-07 19:45 | 50.96959 | 4.70546 | 2647 ft | 180 kts | 242° |
| 2026-05-07 19:46 | 50.96464 | 4.68773 | 2501 ft | 174 kts | 248° |
| 2026-05-07 19:46 | 50.96011 | 4.66994 | 2280 ft | 174 kts | 247° |
| 2026-05-07 19:46 | 50.95559 | 4.65223 | 2043 ft | 173 kts | 248° |
| 2026-05-07 19:46 | 50.95103 | 4.63590 | 2009 ft | 149 kts | 242° |
| 2026-05-07 19:47 | 50.94613 | 4.62082 | 1924 ft | 149 kts | 243° |
| 2026-05-07 19:47 | 50.94217 | 4.60665 | 1750 ft | 135 kts | 247° |
| 2026-05-07 19:47 | 50.93844 | 4.59292 | 1524 ft | 136 kts | 246° |
| 2026-05-07 19:47 | 50.93463 | 4.57953 | 1292 ft | 135 kts | 245° |
| 2026-05-07 19:48 | 50.93063 | 4.56621 | 1025 ft | 134 kts | 245° |
| 2026-05-07 19:48 | 50.92680 | 4.55280 | 823 ft | 133 kts | 247° |
| 2026-05-07 19:48 | 50.92306 | 4.53952 | 648 ft | 131 kts | 246° |
| 2026-05-07 19:48 | 50.91932 | 4.52630 | 505 ft | 132 kts | 246° |
| 2026-05-07 19:49 | 50.91548 | 4.51327 | 325 ft | 133 kts | 245° |
| 2026-05-07 19:49 | 50.91184 | 4.50036 | 134 ft | 125 kts | 246° |
| 2026-05-07 19:49 | 50.90906 | 4.49076 | 112 ft | 36 kts | 246° |
| 2026-05-07 19:49 | 50.90863 | 4.48931 | 113 ft | 25 kts | 241° |
| 2026-05-07 19:50 | 50.90783 | 4.48650 | 114 ft | 31 kts | 245° |
| 2026-05-07 19:50 | 50.90673 | 4.48357 | 118 ft | 28 kts | 231° |
| 2026-05-07 19:50 | 50.90538 | 4.48172 | 118 ft | 18 kts | 215° |
| 2026-05-07 19:50 | 50.90505 | 4.48136 | 118 ft | 0 kts | 217° |
| 2026-05-07 19:53 | 50.90504 | 4.48135 | 123 ft | 2 kts | 217° |
| 2026-05-07 19:53 | 50.90452 | 4.48078 | 119 ft | 14 kts | 216° |
| 2026-05-07 19:53 | 50.90379 | 4.48032 | 121 ft | 4 kts | 176° |
| 2026-05-07 19:54 | 50.90369 | 4.48033 | 122 ft | 1 kts | 181° |
| 2026-05-07 19:54 | 50.90332 | 4.47992 | 124 ft | 12 kts | 235° |
| 2026-05-07 19:54 | 50.90285 | 4.47830 | 119 ft | 19 kts | 245° |
| 2026-05-07 19:54 | 50.90248 | 4.47698 | 119 ft | 13 kts | 247° |
| 2026-05-07 19:55 | 50.90194 | 4.47584 | 123 ft | 7 kts | 181° |
| 2026-05-07 19:55 | 50.90185 | 4.47592 | 122 ft | 4 kts | 144° |
| 2026-05-07 19:55 | 50.90179 | 4.47665 | 123 ft | 7 kts | 100° |
| 2026-05-07 19:55 | 50.90165 | 4.47688 | 125 ft | 4 kts | 150° |
| 2026-05-07 19:56 | 50.90148 | 4.47699 | 126 ft | 0 kts | 155° |
| 2026-05-07 19:56 | 50.90149 | 4.47699 | 126 ft | 1 kts | 155° |
| 2026-05-07 19:56 | 50.90143 | 4.47703 | 126 ft | 0 kts | 155° |